Time;durP1;ratioP1;P1;durP2;ratioP2;P2;SDS_P1;SDS_P2;PMS_P1;PMS_P2;Temp;Humidity;BMP_temperature;BMP_pressure;BME280_temperature;BME280_humidity;BME280_pressure;Samples;Min_cycle;Max_cycle;Signal;HPM_P1;HPM_P2
2021/06/25 00:00:17;;;;;;;2.70;2.03;;;20.40;61.40;;;;;;4132751;28;20117;-56
2021/06/25 00:02:19;;;;;;;2.92;1.90;;;20.30;61.40;;;;;;4129874;28;20053;-58
2021/06/25 00:04:21;;;;;;;3.95;2.28;;;20.30;61.40;;;;;;4133807;28;20049;-53
2021/06/25 00:06:24;;;;;;;4.65;1.98;;;20.30;61.50;;;;;;4135132;28;20029;-51
2021/06/25 00:08:26;;;;;;;4.17;2.00;;;20.20;61.40;;;;;;4126176;28;20034;-57
2021/06/25 00:10:28;;;;;;;3.22;2.03;;;20.20;61.50;;;;;;4131921;28;20064;-55
2021/06/25 00:12:30;;;;;;;2.90;1.95;;;20.20;61.50;;;;;;4132152;28;20368;-57
2021/06/25 00:14:33;;;;;;;2.80;2.17;;;20.20;61.60;;;;;;4133689;28;20392;-56
2021/06/25 00:16:35;;;;;;;2.58;2.00;;;20.10;61.50;;;;;;4131157;28;20775;-58
2021/06/25 00:18:37;;;;;;;2.50;2.00;;;20.10;61.50;;;;;;4130956;28;20042;-59
2021/06/25 00:20:39;;;;;;;4.50;2.30;;;20.10;61.60;;;;;;4129936;28;20030;-57
2021/06/25 00:22:43;;;;;;;2.92;2.28;;;20.10;61.50;;;;;;4131907;28;20030;-50
2021/06/25 00:24:45;;;;;;;3.97;1.95;;;20.10;61.60;;;;;;4129200;28;20421;-54
2021/06/25 00:26:50;;;;;;;2.38;1.88;;;20.00;61.60;;;;;;4130609;28;21144;-55
2021/06/25 00:28:52;;;;;;;3.63;1.70;;;20.00;61.60;;;;;;4130906;28;20026;-56
2021/06/25 00:30:54;;;;;;;3.25;2.10;;;20.00;61.60;;;;;;4125294;28;20111;-55
2021/06/25 00:32:56;;;;;;;2.33;1.48;;;20.00;61.60;;;;;;4130433;28;20045;-55
2021/06/25 00:34:59;;;;;;;2.25;1.70;;;20.00;61.60;;;;;;4130618;28;20026;-53
2021/06/25 00:37:01;;;;;;;4.28;2.10;;;20.00;61.70;;;;;;4129853;28;21210;-55
2021/06/25 00:39:04;;;;;;;3.00;1.90;;;20.00;61.70;;;;;;4130732;28;20037;-57
2021/06/25 00:41:07;;;;;;;4.43;2.13;;;20.00;61.70;;;;;;4133375;28;20041;-56
2021/06/25 00:43:09;;;;;;;3.63;1.95;;;19.90;61.60;;;;;;4130177;28;20046;-58
2021/06/25 00:45:17;;;;;;;2.58;1.73;;;19.90;61.60;;;;;;4133867;28;20105;-57
2021/06/25 00:47:19;;;;;;;2.55;1.90;;;19.90;61.60;;;;;;4132129;28;20044;-52
2021/06/25 00:49:21;;;;;;;3.13;1.83;;;19.90;61.60;;;;;;4131609;28;20057;-58
2021/06/25 00:51:24;;;;;;;3.35;2.22;;;19.90;61.60;;;;;;4132298;28;20108;-57
2021/06/25 00:53:28;;;;;;;2.30;1.70;;;19.90;61.70;;;;;;4130228;28;20034;-57
2021/06/25 00:55:42;;;;;;;2.33;1.92;;;19.90;61.60;;;;;;4132092;28;20629;-57
2021/06/25 00:57:44;;;;;;;3.95;2.25;;;19.90;60.80;;;;;;4129099;28;20030;-57
2021/06/25 00:59:46;;;;;;;3.80;2.10;;;19.80;61.20;;;;;;4129627;28;20041;-58
2021/06/25 01:01:48;;;;;;;3.20;2.13;;;19.80;61.30;;;;;;4124438;28;20046;-56
2021/06/25 01:03:50;;;;;;;2.55;2.00;;;19.80;61.30;;;;;;4130187;28;20026;-56
2021/06/25 01:05:54;;;;;;;2.47;1.70;;;19.80;61.20;;;;;;4129415;28;20091;-55
2021/06/25 01:07:57;;;;;;;3.08;2.20;;;19.80;61.30;;;;;;4134147;28;20124;-54
2021/06/25 01:10:01;;;;;;;3.65;1.90;;;19.70;61.30;;;;;;4130045;28;20060;-58
2021/06/25 01:12:05;;;;;;;2.53;1.70;;;19.70;61.30;;;;;;4130328;28;20565;-52
2021/06/25 01:14:08;;;;;;;4.43;1.90;;;19.70;61.40;;;;;;4128086;28;20086;-59
2021/06/25 01:16:10;;;;;;;3.70;2.03;;;19.70;61.40;;;;;;4132563;28;20037;-53
2021/06/25 01:18:12;;;;;;;2.77;1.80;;;19.70;61.50;;;;;;4128950;28;20030;-58
2021/06/25 01:20:26;;;;;;;1.95;1.60;;;19.70;61.50;;;;;;4129141;28;20117;-51
2021/06/25 01:22:41;;;;;;;4.20;2.47;;;19.70;61.50;;;;;;4130221;28;20638;-50
2021/06/25 01:24:43;;;;;;;2.65;1.90;;;19.70;62.10;;;;;;4128140;28;20022;-57
2021/06/25 01:26:45;;;;;;;3.30;1.98;;;19.70;61.50;;;;;;4132538;28;20131;-58
2021/06/25 01:28:47;;;;;;;3.00;1.70;;;19.60;61.50;;;;;;4131362;28;20716;-56
2021/06/25 01:30:50;;;;;;;2.03;1.60;;;19.70;61.50;;;;;;4134149;28;20042;-54
2021/06/25 01:32:53;;;;;;;2.70;1.70;;;19.60;61.50;;;;;;4129269;28;20392;-58
2021/06/25 01:34:55;;;;;;;2.97;1.70;;;19.60;61.50;;;;;;4129964;28;20053;-52
2021/06/25 01:36:58;;;;;;;2.40;1.45;;;19.60;61.50;;;;;;4129929;28;20115;-55
2021/06/25 01:39:05;;;;;;;3.13;1.73;;;19.60;61.60;;;;;;4133221;28;20034;-54
2021/06/25 01:41:07;;;;;;;2.63;1.90;;;19.60;61.50;;;;;;4131067;28;20598;-55
2021/06/25 01:43:11;;;;;;;3.00;1.77;;;19.60;61.50;;;;;;4129117;28;20042;-52
2021/06/25 01:45:17;;;;;;;3.40;1.65;;;19.60;62.20;;;;;;4134382;28;20052;-52
2021/06/25 01:47:19;;;;;;;1.85;1.42;;;19.60;62.20;;;;;;4128633;28;20037;-55
2021/06/25 01:49:21;;;;;;;1.92;1.45;;;19.60;61.60;;;;;;4132929;28;20076;-53
2021/06/25 01:51:23;;;;;;;1.98;1.50;;;19.60;61.50;;;;;;4130764;28;20025;-56
2021/06/25 01:53:26;;;;;;;2.67;1.70;;;19.60;61.60;;;;;;4129402;28;20113;-53
2021/06/25 01:55:39;;;;;;;2.03;1.42;;;19.50;61.50;;;;;;4129806;28;20053;-49
2021/06/25 01:57:42;;;;;;;2.22;1.63;;;19.60;61.70;;;;;;4128891;28;20542;-52
2021/06/25 01:59:44;;;;;;;4.15;1.70;;;19.50;61.50;;;;;;4130570;28;20451;-53
2021/06/25 02:01:46;;;;;;;2.47;1.50;;;19.50;61.50;;;;;;4122784;28;20054;-52
2021/06/25 02:03:48;;;;;;;2.20;1.80;;;19.50;61.50;;;;;;4130762;28;20089;-57
2021/06/25 02:05:50;;;;;;;2.75;1.63;;;19.50;61.50;;;;;;4132065;28;20565;-50
2021/06/25 02:07:52;;;;;;;2.47;1.50;;;19.50;61.60;;;;;;4131560;28;20562;-52
2021/06/25 02:09:56;;;;;;;2.90;1.50;;;19.50;61.50;;;;;;4130951;28;20088;-54
2021/06/25 02:11:58;;;;;;;2.28;1.50;;;19.50;61.50;;;;;;4130143;28;20176;-57
2021/06/25 02:14:00;;;;;;;3.28;1.52;;;19.50;61.50;;;;;;4124843;28;20436;-54
2021/06/25 02:16:03;;;;;;;5.25;1.75;;;19.50;61.60;;;;;;4131214;28;20380;-51
2021/06/25 02:18:05;;;;;;;2.03;1.60;;;19.50;61.60;;;;;;4127891;28;20033;-55
2021/06/25 02:20:09;;;;;;;3.58;1.70;;;19.50;61.60;;;;;;4127381;28;20026;-56
2021/06/25 02:22:11;;;;;;;3.88;1.48;;;19.50;61.70;;;;;;4133741;28;20108;-49
2021/06/25 02:24:14;;;;;;;1.53;1.20;;;19.50;61.70;;;;;;4133181;28;20105;-56
2021/06/25 02:26:16;;;;;;;3.35;1.50;;;19.50;61.70;;;;;;4135373;28;20088;-53
2021/06/25 02:28:19;;;;;;;3.30;1.25;;;19.50;61.70;;;;;;4133135;28;20029;-59
2021/06/25 02:30:21;;;;;;;1.73;1.50;;;19.50;61.30;;;;;;4130561;28;20041;-57
2021/06/25 02:32:23;;;;;;;4.20;1.73;;;19.50;60.80;;;;;;4127874;28;20777;-58
2021/06/25 02:34:25;;;;;;;4.03;2.00;;;19.40;60.00;;;;;;4135022;28;20321;-58
2021/06/25 02:36:27;;;;;;;1.60;1.20;;;19.40;59.60;;;;;;4125850;28;20333;-59
2021/06/25 02:38:29;;;;;;;3.28;1.50;;;19.40;59.50;;;;;;4135826;28;20029;-58
2021/06/25 02:40:32;;;;;;;1.73;1.40;;;19.40;59.60;;;;;;4131839;28;20283;-58
2021/06/25 02:42:34;;;;;;;2.42;1.58;;;19.30;59.50;;;;;;4132507;28;21403;-58
2021/06/25 02:44:37;;;;;;;2.92;1.70;;;19.30;59.20;;;;;;4132092;28;20627;-57
2021/06/25 02:46:39;;;;;;;1.90;1.52;;;19.30;59.10;;;;;;4135558;28;20030;-59
2021/06/25 02:48:41;;;;;;;1.45;1.35;;;19.20;59.20;;;;;;4132651;28;20026;-58
2021/06/25 02:50:43;;;;;;;2.55;1.67;;;19.20;59.10;;;;;;4137271;28;20038;-58
2021/06/25 02:52:46;;;;;;;1.92;1.30;;;19.20;59.10;;;;;;4130665;28;20073;-58
2021/06/25 02:54:48;;;;;;;2.33;1.50;;;;;;;;;;4132959;28;20128;-55
2021/06/25 02:56:50;;;;;;;3.08;1.50;;;;;;;;;;4135115;28;20029;-58
2021/06/25 02:58:52;;;;;;;2.85;1.48;;;;;;;;;;4130984;28;20757;-56
2021/06/25 03:00:54;;;;;;;3.10;1.50;;;;;;;;;;4134699;28;20330;-54
2021/06/25 03:02:56;;;;;;;2.28;1.30;;;;;;;;;;4131101;28;20638;-56
2021/06/25 03:04:58;;;;;;;3.30;1.42;;;;;;;;;;4134764;28;20032;-55
2021/06/25 03:07:00;;;;;;;1.50;1.02;;;;;;;;;;4132101;28;20056;-56
2021/06/25 03:09:02;;;;;;;1.83;1.30;;;;;;;;;;4134598;28;20045;-53
2021/06/25 03:11:04;;;;;;;2.55;1.58;;;;;;;;;;4133170;28;20221;-57
2021/06/25 03:13:06;;;;;;;1.85;1.30;;;;;;;;;;4134798;28;20411;-58
2021/06/25 03:15:09;;;;;;;2.15;1.27;;;;;;;;;;4134977;28;20160;-52
2021/06/25 03:17:11;;;;;;;2.00;1.30;;;;;;;;;;4134420;28;20022;-52
2021/06/25 03:19:13;;;;;;;1.88;1.10;;;;;;;;;;4133904;28;20040;-53
2021/06/25 03:21:17;;;;;;;1.30;1.10;;;;;;;;;;4133957;28;20538;-55
2021/06/25 03:23:19;;;;;;;1.25;1.05;;;;;;;;;;4133738;28;20473;-53
2021/06/25 03:25:21;;;;;;;1.77;1.10;;;;;;;;;;4133840;28;20137;-50
2021/06/25 03:27:23;;;;;;;1.60;1.17;;;;;;;;;;4133271;28;20036;-57
2021/06/25 03:29:25;;;;;;;1.83;1.17;;;;;;;;;;4132263;28;20245;-56
2021/06/25 03:31:27;;;;;;;1.50;1.17;;;;;;;;;;4130421;28;20074;-54
2021/06/25 03:33:29;;;;;;;1.88;1.10;;;;;;;;;;4133540;28;20068;-49
2021/06/25 03:35:31;;;;;;;1.65;0.90;;;;;;;;;;4131136;28;20030;-50
2021/06/25 03:37:33;;;;;;;2.22;1.10;;;;;;;;;;4130873;28;20033;-50
2021/06/25 03:39:36;;;;;;;1.98;1.17;;;;;;;;;;4132803;28;20531;-50
2021/06/25 03:41:39;;;;;;;1.17;1.05;;;;;;;;;;4131391;28;20026;-47
2021/06/25 03:43:41;;;;;;;1.10;1.00;;;;;;;;;;4128201;28;20041;-58
2021/06/25 03:45:43;;;;;;;1.45;1.10;;;;;;;;;;4127289;28;20034;-58
2021/06/25 03:47:45;;;;;;;1.70;0.90;;;;;;;;;;4127201;28;20041;-55
2021/06/25 03:49:47;;;;;;;2.40;1.00;;;;;;;;;;4128326;28;20021;-59
2021/06/25 03:51:49;;;;;;;2.40;1.02;;;;;;;;;;4125510;28;20036;-58
2021/06/25 03:53:51;;;;;;;2.30;1.27;;;;;;;;;;4127700;28;20050;-57
2021/06/25 03:56:11;;;;;;;2.13;1.00;;;;;;;;;;4129436;28;20033;-58
2021/06/25 03:58:13;;;;;;;2.80;1.20;;;;;;;;;;4129403;28;20624;-57
2021/06/25 04:00:16;;;;;;;1.95;0.98;;;;;;;;;;4134480;28;20036;-57
2021/06/25 04:02:18;;;;;;;1.17;0.80;;;;;;;;;;4134350;28;20050;-57
2021/06/25 04:04:20;;;;;;;5.20;1.42;;;;;;;;;;4135739;28;20033;-55
2021/06/25 04:06:22;;;;;;;1.58;0.95;;;;;;;;;;4134825;28;20045;-52
2021/06/25 04:08:26;;;;;;;4.10;1.10;;;;;;;;;;4135928;28;20979;-53
2021/06/25 04:10:28;;;;;;;2.75;0.95;;;;;;;;;;4131844;28;20064;-49
2021/06/25 04:12:31;;;;;;;1.02;0.80;;;;;;;;;;4128593;28;20422;-50
2021/06/25 04:14:33;;;;;;;1.60;1.10;;;;;;;;;;4130874;28;20044;-53
2021/06/25 04:16:35;;;;;;;1.48;0.80;;;;;;;;;;4133726;28;20113;-56
2021/06/25 04:18:37;;;;;;;1.27;1.00;;;;;;;;;;4128111;28;20118;-54
2021/06/25 04:20:39;;;;;;;3.90;0.90;;;;;;;;;;4131026;28;20398;-55
2021/06/25 04:22:41;;;;;;;3.35;0.88;;;19.20;58.90;;;;;;4129474;28;20500;-55
2021/06/25 04:24:43;;;;;;;2.30;0.90;;;20.20;58.40;;;;;;4130550;28;20022;-58
2021/06/25 04:26:45;;;;;;;1.42;1.13;;;20.30;58.30;;;;;;4129788;28;20448;-58
2021/06/25 04:28:47;;;;;;;0.85;0.80;;;20.30;58.20;;;;;;4135037;28;20038;-58
2021/06/25 04:30:50;;;;;;;1.00;0.85;;;20.30;58.10;;;;;;4129518;28;20442;-58
2021/06/25 04:32:53;;;;;;;0.93;0.70;;;20.40;58.10;;;;;;4130101;28;20384;-55
2021/06/25 04:34:55;;;;;;;2.13;0.90;;;20.40;57.90;;;;;;4131612;28;20333;-57
2021/06/25 04:36:57;;;;;;;1.48;0.93;;;20.50;57.90;;;;;;4133212;28;20116;-53
2021/06/25 04:38:59;;;;;;;3.13;1.20;;;20.50;57.80;;;;;;4132705;28;20450;-58
2021/06/25 04:41:03;;;;;;;1.05;0.70;;;20.60;58.30;;;;;;4132242;28;20081;-56
2021/06/25 04:43:07;;;;;;;1.92;1.00;;;20.60;57.60;;;;;;4131829;28;20034;-57
2021/06/25 04:45:11;;;;;;;1.58;0.98;;;20.60;57.50;;;;;;4127885;28;20032;-56
2021/06/25 04:47:13;;;;;;;1.33;1.00;;;20.70;57.40;;;;;;4122843;28;20100;-54
2021/06/25 04:49:15;;;;;;;2.42;0.93;;;20.80;57.30;;;;;;4122031;28;20033;-58
2021/06/25 04:51:17;;;;;;;1.05;0.95;;;20.80;57.10;;;;;;4125998;28;20029;-56
2021/06/25 04:53:19;;;;;;;0.85;0.73;;;20.90;57.20;;;;;;4123666;28;20168;-55
2021/06/25 04:55:21;;;;;;;0.97;0.77;;;20.90;57.30;;;;;;4121808;28;20031;-59
2021/06/25 04:57:24;;;;;;;1.10;0.90;;;21.00;57.10;;;;;;4126052;28;20172;-56
2021/06/25 04:59:27;;;;;;;1.48;0.75;;;21.10;56.90;;;;;;4124892;28;20528;-58
2021/06/25 05:01:29;;;;;;;1.17;0.93;;;21.10;56.80;;;;;;4125970;28;20041;-55
2021/06/25 05:03:33;;;;;;;1.13;0.80;;;21.20;56.80;;;;;;4124879;28;20132;-55
2021/06/25 05:05:37;;;;;;;1.83;0.88;;;21.20;56.70;;;;;;4126140;28;20314;-56
2021/06/25 05:07:39;;;;;;;1.55;0.80;;;21.30;56.50;;;;;;4125051;28;20548;-51
2021/06/25 05:09:41;;;;;;;1.30;0.98;;;21.30;56.50;;;;;;4126509;28;20036;-57
2021/06/25 05:11:44;;;;;;;1.00;0.85;;;21.40;56.20;;;;;;4126276;28;20727;-51
2021/06/25 05:13:46;;;;;;;0.95;0.60;;;21.40;56.40;;;;;;4129352;28;20037;-58
2021/06/25 05:15:48;;;;;;;1.08;0.90;;;21.50;56.30;;;;;;4127236;28;20527;-57
2021/06/25 05:17:51;;;;;;;0.80;0.70;;;21.50;56.20;;;;;;4129839;28;20026;-57
2021/06/25 05:19:53;;;;;;;1.08;0.80;;;21.50;56.00;;;;;;4125353;28;20100;-58
2021/06/25 05:21:55;;;;;;;1.08;0.85;;;21.60;56.00;;;;;;4120880;28;20590;-58
2021/06/25 05:23:57;;;;;;;1.50;1.00;;;21.60;56.00;;;;;;4125277;28;20070;-56
2021/06/25 05:25:59;;;;;;;3.08;0.80;;;21.60;55.90;;;;;;4120635;28;20030;-56
2021/06/25 05:28:01;;;;;;;0.90;0.80;;;21.70;55.80;;;;;;4124813;28;20041;-58
2021/06/25 05:30:05;;;;;;;0.75;0.73;;;21.60;55.80;;;;;;4123513;28;20025;-56
2021/06/25 05:32:08;;;;;;;1.05;0.80;;;21.60;55.80;;;;;;4126216;28;20029;-58
2021/06/25 05:34:10;;;;;;;1.58;0.70;;;21.60;55.90;;;;;;4127426;28;20056;-55
2021/06/25 05:36:12;;;;;;;0.75;0.57;;;21.60;55.90;;;;;;4124228;28;20030;-57
2021/06/25 05:38:15;;;;;;;0.93;0.70;;;21.60;56.10;;;;;;4125596;28;20294;-57
2021/06/25 05:40:17;;;;;;;1.23;1.00;;;21.60;56.00;;;;;;4127857;28;20264;-56
2021/06/25 05:42:19;;;;;;;1.17;0.80;;;21.60;56.10;;;;;;4127311;28;20130;-53
2021/06/25 05:44:22;;;;;;;1.38;0.70;;;21.50;56.00;;;;;;4124614;28;20570;-56
2021/06/25 05:46:24;;;;;;;0.93;0.80;;;21.60;56.10;;;;;;4123562;28;20072;-58
2021/06/25 05:48:27;;;;;;;0.75;0.75;;;21.60;56.10;;;;;;4123917;28;20607;-51
2021/06/25 05:50:29;;;;;;;1.13;0.60;;;21.50;56.20;;;;;;4123460;28;20031;-56
2021/06/25 05:52:31;;;;;;;0.63;0.60;;;21.50;56.30;;;;;;4118305;28;20022;-57
2021/06/25 05:54:34;;;;;;;1.70;0.80;;;21.50;56.40;;;;;;4123289;28;20045;-53
2021/06/25 05:56:36;;;;;;;1.92;1.10;;;21.50;57.00;;;;;;4124075;28;20042;-55
2021/06/25 05:58:38;;;;;;;1.02;0.70;;;21.40;56.40;;;;;;4125401;28;20026;-58
2021/06/25 06:00:41;;;;;;;0.50;0.50;;;21.40;56.40;;;;;;4123776;28;20287;-59
2021/06/25 06:02:43;;;;;;;0.95;0.70;;;21.30;56.40;;;;;;4122556;28;20058;-60
2021/06/25 06:04:46;;;;;;;1.20;0.90;;;21.30;56.40;;;;;;4125462;28;20078;-54
2021/06/25 06:06:48;;;;;;;1.60;0.98;;;21.30;56.40;;;;;;4124462;28;20204;-55
2021/06/25 06:08:50;;;;;;;0.70;0.70;;;21.30;56.50;;;;;;4124904;28;20735;-51
2021/06/25 06:10:52;;;;;;;1.10;0.60;;;21.30;56.50;;;;;;4123485;28;20053;-59
2021/06/25 06:12:54;;;;;;;1.00;0.68;;;21.20;56.60;;;;;;4121145;28;20034;-57
2021/06/25 06:14:56;;;;;;;2.47;0.70;;;21.20;56.60;;;;;;4125431;28;20180;-58
2021/06/25 06:16:59;;;;;;;0.98;0.77;;;21.20;56.60;;;;;;4125219;28;20225;-54
2021/06/25 06:19:03;;;;;;;1.10;0.70;;;21.20;56.40;;;;;;4124419;28;20027;-57
2021/06/25 06:21:05;;;;;;;1.00;0.77;;;21.20;56.20;;;;;;4126334;28;20014;-52
2021/06/25 06:32:37;;;;;;;1.30;0.80;;;21.10;56.30;;;;;;4122317;28;20577;-58
2021/06/25 06:34:40;;;;;;;1.38;0.68;;;21.10;56.20;;;;;;4125113;28;20188;-56
2021/06/25 06:36:44;;;;;;;1.40;0.90;;;21.10;56.10;;;;;;4124185;28;20485;-54
2021/06/25 06:38:47;;;;;;;0.70;0.70;;;21.10;55.90;;;;;;4125890;28;20113;-59
2021/06/25 06:40:49;;;;;;;1.85;0.93;;;21.00;55.90;;;;;;4122482;28;20582;-57
2021/06/25 06:42:51;;;;;;;1.02;0.70;;;21.00;56.00;;;;;;4124205;28;20053;-53
2021/06/25 06:44:53;;;;;;;1.80;1.00;;;20.90;56.00;;;;;;4127147;28;20018;-56
2021/06/25 06:46:55;;;;;;;0.65;0.65;;;20.90;56.00;;;;;;4131241;28;20101;-53
2021/06/25 06:48:57;;;;;;;0.75;0.75;;;20.90;56.00;;;;;;4120890;28;20034;-57
2021/06/25 06:50:59;;;;;;;1.17;0.65;;;20.80;56.00;;;;;;4126583;28;20030;-58
2021/06/25 06:53:01;;;;;;;1.95;1.15;;;20.80;56.10;;;;;;4123124;28;20052;-58
2021/06/25 06:55:04;;;;;;;0.60;0.60;;;20.70;56.30;;;;;;4121831;28;20351;-58
2021/06/25 06:57:06;;;;;;;0.80;0.70;;;20.70;56.30;;;;;;4121809;28;20110;-57
2021/06/25 06:59:08;;;;;;;1.42;0.80;;;20.70;56.40;;;;;;4122264;28;20029;-57
2021/06/25 07:01:11;;;;;;;1.13;0.77;;;20.60;56.40;;;;;;4123109;28;20046;-56
2021/06/25 07:03:14;;;;;;;1.75;0.80;;;20.60;56.40;;;;;;4124507;28;20030;-53
2021/06/25 07:05:16;;;;;;;1.10;0.90;;;20.60;56.50;;;;;;4122138;28;20032;-54
2021/06/25 07:07:18;;;;;;;0.88;0.88;;;20.60;56.50;;;;;;4118255;28;20262;-56
2021/06/25 07:09:20;;;;;;;1.67;0.85;;;20.60;56.60;;;;;;4123351;28;20096;-58
2021/06/25 07:11:23;;;;;;;1.42;0.85;;;20.50;56.50;;;;;;4128348;28;20312;-58
2021/06/25 07:13:26;;;;;;;2.22;0.75;;;20.50;56.50;;;;;;4130252;28;20075;-58
2021/06/25 07:15:28;;;;;;;3.28;0.90;;;20.50;56.90;;;;;;4128019;28;20038;-55
2021/06/25 07:17:30;;;;;;;0.73;0.73;;;20.50;56.60;;;;;;4128747;28;20040;-57
2021/06/25 07:19:32;;;;;;;3.63;1.05;;;20.50;56.60;;;;;;4129389;28;20034;-56
2021/06/25 07:21:34;;;;;;;0.90;0.60;;;20.40;56.60;;;;;;4130664;28;20426;-57
2021/06/25 07:23:36;;;;;;;1.75;0.70;;;20.40;56.60;;;;;;4122815;28;20134;-60
2021/06/25 07:25:38;;;;;;;1.45;0.90;;;20.40;56.70;;;;;;4128988;28;20029;-57
2021/06/25 07:27:42;;;;;;;1.08;0.75;;;20.40;56.70;;;;;;4124011;28;20490;-58
2021/06/25 07:29:44;;;;;;;1.65;0.88;;;20.40;56.80;;;;;;4125832;28;20124;-55
2021/06/25 07:31:46;;;;;;;1.10;0.98;;;20.40;56.40;;;;;;4128047;28;20041;-58
2021/06/25 07:33:49;;;;;;;2.80;1.10;;;20.40;55.90;;;;;;4125275;28;20026;-58
2021/06/25 07:35:53;;;;;;;2.15;1.40;;;20.30;55.10;;;;;;4128545;28;20040;-56
2021/06/25 07:37:55;;;;;;;2.90;1.00;;;20.30;55.00;;;;;;4128155;28;20044;-59
2021/06/25 07:39:58;;;;;;;2.83;1.02;;;20.20;55.00;;;;;;4117909;28;20045;-57
2021/06/25 07:42:00;;;;;;;4.10;1.20;;;20.20;54.90;;;;;;4125150;28;21988;-57
2021/06/25 07:44:03;;;;;;;2.08;1.17;;;20.10;54.90;;;;;;4130438;28;20280;-57
2021/06/25 07:46:05;;;;;;;3.30;1.30;;;20.10;55.00;;;;;;4129242;28;20189;-58
2021/06/25 07:48:07;;;;;;;2.10;0.98;;;20.10;55.00;;;;;;4128459;28;20132;-52
2021/06/25 07:50:17;;;;;;;3.05;1.20;;;20.10;55.00;;;;;;4127570;28;20121;-56
2021/06/25 07:52:20;;;;;;;2.10;1.20;;;20.00;54.60;;;;;;4128735;28;20067;-58
2021/06/25 07:54:22;;;;;;;3.83;1.20;;;20.00;54.70;;;;;;4121328;28;20113;-58
2021/06/25 07:56:24;;;;;;;2.35;0.90;;;20.00;54.90;;;;;;4126935;28;20040;-58
2021/06/25 07:58:26;;;;;;;1.27;1.17;;;19.90;55.10;;;;;;4128987;28;20030;-58
2021/06/25 08:00:28;;;;;;;2.38;1.25;;;19.90;55.30;;;;;;4124830;28;20428;-60
2021/06/25 08:02:30;;;;;;;2.08;1.42;;;19.90;55.50;;;;;;4124966;28;20452;-59
2021/06/25 08:04:32;;;;;;;2.03;1.08;;;19.90;55.70;;;;;;4124816;28;20037;-59
2021/06/25 08:06:34;;;;;;;1.52;1.13;;;19.90;56.00;;;;;;4127027;28;20029;-55
2021/06/25 08:08:36;;;;;;;1.73;1.00;;;19.90;56.10;;;;;;4124212;28;20076;-51
2021/06/25 08:10:38;;;;;;;2.92;1.10;;;19.90;56.10;;;;;;4129238;28;20044;-52
2021/06/25 08:12:40;;;;;;;2.55;1.40;;;19.90;56.30;;;;;;4126635;28;20472;-57
2021/06/25 08:14:43;;;;;;;1.52;1.00;;;19.90;56.40;;;;;;4131136;28;20346;-58
2021/06/25 08:16:45;;;;;;;1.88;1.00;;;19.90;56.50;;;;;;4133414;28;20089;-59
2021/06/25 08:18:47;;;;;;;2.55;1.38;;;19.90;56.60;;;;;;4129076;28;21378;-59
2021/06/25 08:20:49;;;;;;;2.20;1.00;;;19.90;56.70;;;;;;4133220;28;20045;-57
2021/06/25 08:22:51;;;;;;;1.40;1.00;;;19.90;56.80;;;;;;4126646;28;20041;-56
2021/06/25 08:24:54;;;;;;;1.13;0.90;;;19.80;56.90;;;;;;4125905;28;20030;-58
2021/06/25 08:26:57;;;;;;;3.60;1.20;;;19.90;57.00;;;;;;4138711;28;20494;-59
2021/06/25 08:28:59;;;;;;;2.28;1.05;;;19.80;57.20;;;;;;4123066;28;20565;-59
2021/06/25 08:31:01;;;;;;;2.05;1.10;;;19.80;57.30;;;;;;4124281;28;20033;-60
2021/06/25 08:33:03;;;;;;;2.28;1.23;;;19.80;57.20;;;;;;4123917;28;20121;-61
2021/06/25 08:35:07;;;;;;;1.85;1.20;;;19.80;57.30;;;;;;4122569;28;20033;-60
2021/06/25 08:37:09;;;;;;;3.13;1.20;;;19.80;57.40;;;;;;4129302;28;20060;-60
2021/06/25 08:39:11;;;;;;;2.17;1.38;;;19.80;57.60;;;;;;4123654;28;20199;-60
2021/06/25 08:41:13;;;;;;;2.33;1.05;;;19.80;57.60;;;;;;4123479;28;20248;-60
2021/06/25 08:43:16;;;;;;;4.88;1.20;;;19.80;57.60;;;;;;4122226;28;20334;-61
2021/06/25 08:45:19;;;;;;;1.77;1.00;;;19.80;57.60;;;;;;4123516;28;20034;-59
2021/06/25 08:47:26;;;;;;;2.55;1.23;;;19.70;57.60;;;;;;4128139;28;20042;-58
2021/06/25 08:49:29;;;;;;;1.58;1.20;;;19.70;57.60;;;;;;4122318;28;20029;-59
2021/06/25 08:51:32;;;;;;;;;;;19.70;57.20;;;;;;4126645;28;20042;-59
2021/06/25 08:53:34;;;;;;;5.35;1.45;;;19.70;56.90;;;;;;4125201;28;19909;-58
2021/06/25 08:55:43;;;;;;;2.92;1.50;;;19.70;56.80;;;;;;4126763;28;20128;-58
2021/06/25 08:57:46;;;;;;;7.22;1.42;;;19.60;56.60;;;;;;4122454;28;20041;-58
2021/06/25 08:59:48;;;;;;;2.28;1.52;;;19.60;56.80;;;;;;4120395;28;20022;-58
2021/06/25 09:01:51;;;;;;;1.92;1.40;;;19.60;56.90;;;;;;4117799;28;20157;-59
2021/06/25 09:03:54;;;;;;;2.03;1.30;;;19.60;57.00;;;;;;4116286;28;20029;-55
2021/06/25 09:06:13;;;;;;;2.20;1.40;;;19.60;57.00;;;;;;4116240;28;20026;-62
2021/06/25 09:08:29;;;;;;;3.50;1.50;;;19.50;57.10;;;;;;4124354;28;20479;-60
2021/06/25 09:10:42;;;;;;;3.63;1.42;;;19.50;57.20;;;;;;4118156;28;20033;-61
2021/06/25 09:13:11;;;;;;;6.00;1.55;;;19.50;57.80;;;;;;4121194;28;20091;-55
2021/06/25 09:15:15;;;;;;;4.80;1.42;;;19.50;57.80;;;;;;4135789;28;20099;-60
2021/06/25 09:17:18;;;;;;;2.90;1.52;;;19.50;57.70;;;;;;4119148;28;20033;-61
2021/06/25 09:19:20;;;;;;;6.00;2.00;;;19.50;57.80;;;;;;4122176;28;20061;-60
2021/06/25 09:21:22;;;;;;;3.28;1.70;;;19.50;57.80;;;;;;4119715;28;20038;-59
2021/06/25 09:23:40;;;;;;;1.98;1.13;;;19.50;57.80;;;;;;4113318;28;20222;-59
2021/06/25 09:25:59;;;;;;;5.30;1.48;;;19.50;57.80;;;;;;4118175;28;20136;-59
2021/06/25 09:28:02;;;;;;;2.95;1.42;;;19.40;57.70;;;;;;4123910;28;20034;-58
2021/06/25 09:30:10;;;;;;;3.33;1.63;;;19.40;57.70;;;;;;4121922;28;20021;-57
2021/06/25 09:32:13;;;;;;;2.63;1.50;;;19.40;57.80;;;;;;4118284;28;20070;-58
2021/06/25 09:34:15;;;;;;;2.83;1.77;;;19.40;57.90;;;;;;4123254;28;20092;-59
2021/06/25 09:36:30;;;;;;;3.65;1.52;;;19.40;57.90;;;;;;4117834;28;20355;-59
2021/06/25 09:38:35;;;;;;;5.85;1.80;;;19.40;57.90;;;;;;4122849;28;20064;-56
2021/06/25 09:40:38;;;;;;;5.60;1.90;;;19.30;57.90;;;;;;4122959;28;20322;-58
2021/06/25 09:42:43;;;;;;;3.70;1.43;;;19.30;58.20;;;;;;4120925;28;20044;-59
2021/06/25 09:45:00;;;;;;;2.97;1.83;;;19.30;58.90;;;;;;4120555;28;20579;-60
2021/06/25 09:47:03;;;;;;;4.53;1.90;;;19.30;58.40;;;;;;4120631;28;20026;-59
2021/06/25 09:49:11;;;;;;;2.08;1.42;;;19.30;58.40;;;;;;4121789;28;20029;-60
2021/06/25 09:51:14;;;;;;;2.75;1.65;;;19.20;58.50;;;;;;4125806;28;20037;-59
2021/06/25 09:53:17;;;;;;;3.27;1.87;;;19.20;59.20;;;;;;4118957;28;20061;-58
2021/06/25 09:55:25;;;;;;;3.97;1.80;;;19.20;59.20;;;;;;4123647;28;20030;-58
2021/06/25 09:57:28;;;;;;;3.30;1.65;;;19.20;58.70;;;;;;4124225;28;20034;-59
2021/06/25 10:01:41;;;;;;;5.38;2.08;;;19.10;58.80;;;;;;4124446;28;20039;-59
2021/06/25 10:03:47;;;;;;;3.50;2.13;;;19.10;58.80;;;;;;4124837;28;20045;-59
2021/06/25 10:06:05;;;;;;;2.45;1.90;;;19.10;58.80;;;;;;4120768;28;20061;-59
2021/06/25 10:08:08;;;;;;;2.83;2.20;;;19.10;59.00;;;;;;4123618;28;20783;-58
2021/06/25 10:10:10;;;;;;;4.05;2.30;;;19.10;58.90;;;;;;4127181;28;20115;-56
2021/06/25 10:12:15;;;;;;;6.60;3.30;;;19.00;59.00;;;;;;4123690;28;20053;-56
2021/06/25 10:14:18;;;;;;;4.75;2.80;;;19.00;59.00;;;;;;4126358;28;20029;-59
2021/06/25 10:16:21;;;;;;;4.53;3.45;;;19.00;59.00;;;;;;4129524;28;20036;-58
2021/06/25 10:18:26;;;;;;;6.45;3.90;;;19.00;59.00;;;;;;4124572;28;20030;-58
2021/06/25 10:20:30;;;;;;;6.38;3.97;;;19.00;59.00;;;;;;4127219;28;20121;-59
2021/06/25 10:22:34;;;;;;;5.55;3.90;;;19.00;58.90;;;;;;4124596;28;20435;-57
2021/06/25 10:24:36;;;;;;;5.90;4.63;;;19.00;58.90;;;;;;4129301;28;20026;-55
2021/06/25 10:26:40;;;;;;;5.70;5.10;;;19.00;58.80;;;;;;4125287;28;20174;-56
2021/06/25 10:28:42;;;;;;;;;;;18.90;58.90;;;;;;4124281;28;20778;-57
2021/06/25 10:30:46;;;;;;;7.32;5.22;;;18.90;58.90;;;;;;4124961;28;19961;-58
2021/06/25 10:32:49;;;;;;;9.80;5.82;;;18.90;58.80;;;;;;4123910;28;20034;-58
2021/06/25 10:34:51;;;;;;;6.22;5.60;;;18.90;58.80;;;;;;4127351;28;20046;-57
2021/06/25 10:36:54;;;;;;;6.95;6.00;;;18.90;58.90;;;;;;4121229;28;20109;-58
2021/06/25 10:39:02;;;;;;;;;;;18.90;58.80;;;;;;4126474;28;20759;-57
2021/06/25 10:41:06;;;;;;;7.57;6.38;;;18.90;58.90;;;;;;4126412;28;20035;-57
2021/06/25 10:43:08;;;;;;;9.60;6.97;;;18.90;58.80;;;;;;4122641;28;20033;-55
2021/06/25 10:45:11;;;;;;;8.63;7.30;;;18.80;58.90;;;;;;4125568;28;20364;-58
2021/06/25 10:47:32;;;;;;;7.95;6.72;;;18.80;59.00;;;;;;4128806;28;20069;-57
2021/06/25 10:49:34;;;;;;;8.60;7.70;;;18.80;58.90;;;;;;4129078;28;20224;-53
2021/06/25 10:51:44;;;;;;;8.57;7.55;;;18.80;59.00;;;;;;4131286;28;20038;-56
2021/06/25 10:54:24;;;;;;;10.02;7.82;;;18.80;59.00;;;;;;4127114;28;20026;-59
2021/06/25 10:56:27;;;;;;;9.50;7.82;;;18.80;59.00;;;;;;4127704;28;20575;-56
2021/06/25 10:58:29;;;;;;;8.43;7.47;;;18.80;59.20;;;;;;4124808;28;20033;-56
2021/06/25 11:00:40;;;;;;;8.30;7.23;;;18.80;59.30;;;;;;4122674;28;20418;-60
2021/06/25 11:02:45;;;;;;;8.27;7.40;;;18.80;59.40;;;;;;4126233;28;20046;-58
2021/06/25 11:04:48;;;;;;;8.27;7.47;;;18.70;59.20;;;;;;4131566;28;20033;-58